createdAt,value
2022-11-26T00:02:25.472Z,102276.97
2022-11-26T00:04:53.245Z,102277.09
2022-11-26T00:07:23.160Z,102277.38
2022-11-26T00:09:50.445Z,102280.16
2022-11-26T00:12:28.046Z,102278.28
2022-11-26T00:14:54.738Z,102276.72
2022-11-26T00:17:21.981Z,102283.72
2022-11-26T00:19:48.924Z,102272.84
2022-11-26T00:22:21.584Z,102274.50
2022-11-26T00:24:49.130Z,102282.22
2022-11-26T00:27:15.850Z,102281.69
2022-11-26T00:29:42.614Z,102285.91
2022-11-26T00:32:26.127Z,102292.66
2022-11-26T00:34:53.863Z,102275.25
2022-11-26T00:37:32.675Z,102281.72
2022-11-26T00:39:59.418Z,102279.09
2022-11-26T00:42:26.074Z,102290.19
2022-11-26T00:44:52.708Z,102293.28
2022-11-26T00:47:19.318Z,102296.09
2022-11-26T00:49:45.912Z,102296.59
2022-11-26T00:52:33.393Z,102301.91
2022-11-26T00:55:05.623Z,102303.00
2022-11-26T00:57:32.537Z,102306.94
2022-11-26T00:59:59.178Z,102310.81
2022-11-26T01:02:25.805Z,102299.78
2022-11-26T01:04:52.439Z,102297.66
2022-11-26T01:07:19.105Z,102308.16
2022-11-26T01:09:47.350Z,102317.81
2022-11-26T01:12:15.383Z,102317.84
2022-11-26T01:14:42.216Z,102320.50
2022-11-26T01:17:11.895Z,102326.19
2022-11-26T01:19:38.514Z,102335.56
2022-11-26T01:22:05.274Z,102333.78
2022-11-26T01:24:32.001Z,102335.06
2022-11-26T01:26:58.710Z,102341.06
2022-11-26T01:29:25.347Z,102345.16
2022-11-26T01:31:52.028Z,102344.75
2022-11-26T01:34:18.735Z,102351.75
2022-11-26T01:36:45.422Z,102354.16
2022-11-26T01:39:19.757Z,102352.91
2022-11-26T01:42:22.748Z,102350.13
2022-11-26T01:44:49.457Z,102354.59
2022-11-26T01:47:25.052Z,102356.53
2022-11-26T01:50:29.341Z,102340.91
2022-11-26T01:53:01.042Z,102344.38
2022-11-26T01:55:35.813Z,102340.75
2022-11-26T01:58:06.476Z,102339.34
2022-11-26T02:00:33.364Z,102330.94
2022-11-26T02:03:00.864Z,102329.00
2022-11-26T02:05:31.855Z,102323.69
2022-11-26T02:07:58.716Z,102319.91
2022-11-26T02:10:25.357Z,102313.47
2022-11-26T02:12:52.049Z,102321.31
2022-11-26T02:15:18.948Z,102323.97
2022-11-26T02:17:55.542Z,102325.38
2022-11-26T02:20:39.121Z,102326.34
2022-11-26T02:23:17.835Z,102328.44
2022-11-26T02:26:21.437Z,102320.31
2022-11-26T02:29:03.039Z,102312.75
2022-11-26T02:31:32.368Z,102311.91
2022-11-26T02:34:18.032Z,102296.91
2022-11-26T02:36:59.654Z,102295.34
2022-11-26T02:39:28.984Z,102299.84
2022-11-26T02:41:58.648Z,102298.03
2022-11-26T02:44:40.639Z,102292.84
2022-11-26T02:47:12.075Z,102294.53
2022-11-26T02:49:41.309Z,102288.50
2022-11-26T02:52:10.973Z,102296.34
2022-11-26T02:54:40.260Z,102304.09
2022-11-26T02:57:12.291Z,102308.66
2022-11-26T02:59:39.809Z,102314.78
2022-11-26T03:02:35.767Z,102324.69
2022-11-26T03:05:03.810Z,102313.22
2022-11-26T03:07:32.294Z,102318.09
2022-11-26T03:10:01.233Z,102331.13
2022-11-26T03:12:29.372Z,102321.56
2022-11-26T03:14:56.076Z,102328.75
2022-11-26T03:17:22.970Z,102324.09
2022-11-26T03:19:49.614Z,102318.78
2022-11-26T03:22:16.946Z,102315.44
2022-11-26T03:24:43.936Z,102313.47
2022-11-26T03:27:10.755Z,102315.16
2022-11-26T03:29:37.329Z,102327.25
2022-11-26T03:32:04.207Z,102328.94
2022-11-26T03:34:30.894Z,102343.19
2022-11-26T03:36:57.514Z,102346.03
2022-11-26T03:39:24.589Z,102343.13
2022-11-26T03:41:51.219Z,102344.47
2022-11-26T03:44:17.896Z,102341.38
2022-11-26T03:46:44.555Z,102343.91
2022-11-26T03:49:11.231Z,102344.41
2022-11-26T03:51:37.990Z,102344.09
2022-11-26T03:54:04.691Z,102344.16
2022-11-26T03:56:31.309Z,102338.97
2022-11-26T03:58:58.204Z,102344.09
2022-11-26T04:01:25.634Z,102344.38
2022-11-26T04:03:52.589Z,102335.75
2022-11-26T04:06:19.208Z,102334.75
2022-11-26T04:08:45.869Z,102329.25
2022-11-26T04:11:12.478Z,102331.81
2022-11-26T04:13:39.191Z,102330.41
2022-11-26T04:16:06.374Z,102335.06
2022-11-26T04:18:33.292Z,102335.00
2022-11-26T04:21:00.109Z,102348.91
2022-11-26T04:23:26.853Z,102344.09
2022-11-26T04:25:53.694Z,102341.84
2022-11-26T04:28:20.308Z,102342.72
2022-11-26T04:30:46.937Z,102352.75
2022-11-26T04:33:14.056Z,102348.50
2022-11-26T04:35:40.681Z,102345.94
2022-11-26T04:38:07.296Z,102354.00
2022-11-26T04:40:33.973Z,102357.94
2022-11-26T04:43:00.600Z,102361.00
2022-11-26T04:45:27.507Z,102368.81
2022-11-26T04:47:54.599Z,102373.88
2022-11-26T04:50:21.425Z,102368.81
2022-11-26T04:52:50.946Z,102368.25
2022-11-26T04:55:18.308Z,102370.25
2022-11-26T04:57:48.844Z,102363.69
2022-11-26T05:00:18.241Z,102375.38
2022-11-26T05:02:45.716Z,102376.38
2022-11-26T05:05:13.169Z,102382.81
2022-11-26T05:07:40.236Z,102385.59
2022-11-26T05:10:08.779Z,102387.22
2022-11-26T05:12:35.703Z,102400.38
2022-11-26T05:15:02.968Z,102389.75
2022-11-26T05:17:29.677Z,102392.88
2022-11-26T05:19:56.290Z,102396.22
2022-11-26T05:22:23.117Z,102396.69
2022-11-26T05:24:49.852Z,102395.59
2022-11-26T05:27:16.460Z,102383.41
2022-11-26T05:29:43.051Z,102381.16
2022-11-26T05:32:10.165Z,102385.72
2022-11-26T05:34:37.227Z,102384.03
2022-11-26T05:37:03.975Z,102394.03
2022-11-26T05:39:30.642Z,102405.00
2022-11-26T05:41:57.286Z,102407.94
2022-11-26T05:44:23.920Z,102414.00
2022-11-26T05:46:50.695Z,102414.44
2022-11-26T05:49:17.539Z,102412.22
2022-11-26T05:51:44.227Z,102408.28
2022-11-26T05:54:14.938Z,102417.94
2022-11-26T05:56:42.943Z,102423.63
2022-11-26T05:59:10.240Z,102429.75
2022-11-26T06:01:37.214Z,102443.00
2022-11-26T06:04:04.159Z,102445.31
2022-11-26T06:06:30.899Z,102438.28
2022-11-26T06:08:57.602Z,102435.78
2022-11-26T06:11:24.346Z,102437.34
2022-11-26T06:13:50.952Z,102436.25
2022-11-26T06:16:17.723Z,102440.19
2022-11-26T06:18:44.410Z,102453.31
2022-11-26T06:21:11.548Z,102459.34
2022-11-26T06:23:38.177Z,102455.47
2022-11-26T06:26:12.073Z,102455.97
2022-11-26T06:28:39.690Z,102457.78
2022-11-26T06:31:09.118Z,102459.94
2022-11-26T06:33:36.665Z,102461.03
2022-11-26T06:36:05.620Z,102467.31
2022-11-26T06:38:32.669Z,102467.91
2022-11-26T06:41:05.557Z,102457.19
2022-11-26T06:43:32.923Z,102465.16
2022-11-26T06:46:07.800Z,102462.63
2022-11-26T06:48:35.878Z,102458.13
2022-11-26T06:51:07.782Z,102466.72
2022-11-26T06:53:34.758Z,102473.44
2022-11-26T06:56:02.953Z,102467.13
2022-11-26T06:58:29.711Z,102468.56
2022-11-26T07:00:57.085Z,102466.63
2022-11-26T07:03:28.021Z,102466.66
2022-11-26T07:05:57.212Z,102469.63
2022-11-26T07:08:23.828Z,102474.44
2022-11-26T07:10:50.543Z,102463.13
2022-11-26T07:13:17.214Z,102480.81
2022-11-26T07:15:43.906Z,102484.81
2022-11-26T07:18:10.576Z,102491.53
2022-11-26T07:20:37.712Z,102496.38
2022-11-26T07:23:04.704Z,102499.38
2022-11-26T07:25:31.473Z,102508.81
2022-11-26T07:27:58.281Z,102514.41
2022-11-26T07:30:25.584Z,102521.50
2022-11-26T07:32:52.231Z,102529.00
2022-11-26T07:35:18.861Z,102533.41
2022-11-26T07:37:45.706Z,102520.38
2022-11-26T07:40:12.858Z,102525.94
2022-11-26T07:42:39.464Z,102514.47
2022-11-26T07:45:06.634Z,102532.47
2022-11-26T07:47:33.473Z,102535.72
2022-11-26T07:50:00.344Z,102540.38
2022-11-26T07:52:27.067Z,102536.56
2022-11-26T07:54:53.629Z,102539.19
2022-11-26T07:57:22.286Z,102540.34
2022-11-26T07:59:49.217Z,102545.50
2022-11-26T08:02:16.658Z,102548.19
2022-11-26T08:04:43.322Z,102541.78
2022-11-26T08:07:10.004Z,102535.94
2022-11-26T08:09:36.785Z,102525.47
2022-11-26T08:12:03.666Z,102517.47
2022-11-26T08:14:30.338Z,102528.81
2022-11-26T08:16:57.684Z,102530.50
2022-11-26T08:19:24.532Z,102533.03
2022-11-26T08:21:51.120Z,102533.84
2022-11-26T08:24:20.109Z,102536.81
2022-11-26T08:26:46.958Z,102536.00
2022-11-26T08:29:14.457Z,102545.53
2022-11-26T08:31:45.670Z,102553.69
2022-11-26T08:34:15.134Z,102552.41
2022-11-26T08:36:42.048Z,102545.25
2022-11-26T08:39:12.026Z,102543.00
2022-11-26T08:41:38.746Z,102536.56
2022-11-26T08:44:07.215Z,102522.63
2022-11-26T08:46:36.915Z,102518.44
2022-11-26T08:49:04.415Z,102521.81
2022-11-26T08:51:31.100Z,102520.97
2022-11-26T08:53:57.727Z,102526.44
2022-11-26T08:56:24.842Z,102518.31
2022-11-26T08:58:51.800Z,102515.22
2022-11-26T09:01:24.780Z,102520.34
2022-11-26T09:03:53.158Z,102520.97
2022-11-26T09:06:21.544Z,102517.72
2022-11-26T09:09:07.280Z,102525.50
2022-11-26T09:11:36.624Z,102519.69
2022-11-26T09:14:04.196Z,102522.63
2022-11-26T09:16:31.957Z,102525.31
2022-11-26T09:19:03.376Z,102531.63
2022-11-26T09:21:30.031Z,102532.78
2022-11-26T09:23:56.715Z,102534.06
2022-11-26T09:26:24.389Z,102545.69
2022-11-26T09:28:51.869Z,102547.50
2022-11-26T09:31:19.291Z,102540.06
2022-11-26T09:33:46.185Z,102554.50
2022-11-26T09:36:14.871Z,102560.13
2022-11-26T09:38:42.876Z,102554.13
2022-11-26T09:41:37.056Z,102545.97
2022-11-26T09:44:25.375Z,102544.28
2022-11-26T09:47:12.453Z,102549.75
2022-11-26T09:49:57.653Z,102548.34
2022-11-26T09:52:28.609Z,102537.09
2022-11-26T09:55:11.691Z,102540.78
2022-11-26T09:57:44.639Z,102531.78
2022-11-26T10:00:23.979Z,102528.41
2022-11-26T10:02:55.708Z,102534.44
2022-11-26T10:05:34.385Z,102530.78
2022-11-26T10:08:39.448Z,102540.19
2022-11-26T10:11:33.112Z,102532.31
2022-11-26T10:14:21.185Z,102536.13
2022-11-26T10:16:59.550Z,102538.78
2022-11-26T10:19:38.187Z,102533.56
2022-11-26T10:22:21.677Z,102528.66
2022-11-26T10:24:50.323Z,102529.19
2022-11-26T10:27:25.419Z,102528.47
2022-11-26T10:29:57.397Z,102521.69
2022-11-26T10:32:27.338Z,102526.91
2022-11-26T10:34:56.632Z,102523.09
2022-11-26T10:37:25.696Z,102537.25
2022-11-26T10:40:24.859Z,102526.16
2022-11-26T10:43:09.746Z,102527.72
2022-11-26T10:45:42.041Z,102529.34
2022-11-26T11:07:54.920Z,102521.38
2022-11-26T11:10:24.361Z,102516.88
2022-11-26T11:13:11.427Z,102513.16
2022-11-26T11:15:40.394Z,102495.84
2022-11-26T11:18:18.521Z,102487.44
2022-11-26T11:21:04.999Z,102487.75
2022-11-26T11:24:07.033Z,102483.84
2022-11-26T11:26:28.416Z,102471.31
2022-11-26T11:28:55.741Z,102465.19
2022-11-26T11:31:24.906Z,102457.25
2022-11-26T11:34:10.995Z,102449.75
2022-11-26T11:36:37.719Z,102455.06
2022-11-26T11:39:05.355Z,102442.41
2022-11-26T11:41:48.719Z,102440.41
2022-11-26T11:44:25.430Z,102430.88
2022-11-26T11:47:15.047Z,102422.66
2022-11-26T11:49:49.356Z,102428.72
2022-11-26T11:52:20.090Z,102425.19
2022-11-26T11:55:03.205Z,102419.84
2022-11-26T11:57:53.818Z,102423.56
2022-11-26T12:00:37.047Z,102422.88
2022-11-26T12:03:51.563Z,102412.19
2022-11-26T12:06:42.900Z,102411.97
2022-11-26T12:09:40.644Z,102401.56
2022-11-26T12:12:16.439Z,102391.63
2022-11-26T12:14:49.364Z,102385.91
2022-11-26T12:17:43.814Z,102387.09
2022-11-26T12:20:17.489Z,102391.09
2022-11-26T12:23:23.024Z,102390.72
2022-11-26T12:26:14.120Z,102392.78
2022-11-26T12:28:51.322Z,102387.38
2022-11-26T12:31:41.991Z,102376.63
2022-11-26T12:34:24.766Z,102373.41
2022-11-26T12:36:57.180Z,102371.22
2022-11-26T12:40:05.352Z,102357.09
2022-11-26T12:42:50.736Z,102351.75
2022-11-26T12:45:51.264Z,102349.00
2022-11-26T12:48:17.977Z,102351.16
2022-11-26T12:50:52.043Z,102350.44
2022-11-26T12:53:39.974Z,102344.22
2022-11-26T12:56:13.859Z,102342.34
2022-11-26T12:59:07.519Z,102340.47
2022-11-26T13:01:34.393Z,102342.53
2022-11-26T13:04:29.845Z,102343.81
2022-11-26T13:07:06.442Z,102337.97
2022-11-26T13:09:51.687Z,102339.63
2022-11-26T13:12:46.804Z,102336.59
2022-11-26T13:15:58.546Z,102330.63
2022-11-26T13:18:34.388Z,102336.53
2022-11-26T13:21:09.815Z,102329.66
2022-11-26T13:23:39.439Z,102329.25
2022-11-26T13:26:20.361Z,102321.97
2022-11-26T13:29:09.004Z,102314.84
2022-11-26T13:32:07.138Z,102319.56
2022-11-26T13:34:56.780Z,102325.22
2022-11-26T13:37:29.326Z,102320.06
2022-11-26T13:40:29.641Z,102321.09
2022-11-26T13:43:11.461Z,102318.03
2022-11-26T13:45:45.577Z,102315.34
2022-11-26T13:48:19.918Z,102311.44
2022-11-26T13:50:54.983Z,102301.66
2022-11-26T13:53:36.622Z,102303.97
2022-11-26T13:56:07.680Z,102298.38
2022-11-26T13:58:48.004Z,102293.09
2022-11-26T14:01:36.762Z,102295.50
2022-11-26T14:04:07.813Z,102288.38
2022-11-26T14:06:35.220Z,102289.88
2022-11-26T14:09:02.866Z,102289.13
2022-11-26T14:11:41.691Z,102285.53
2022-11-26T14:14:26.655Z,102290.34
2022-11-26T14:17:02.575Z,102295.22
2022-11-26T14:19:41.208Z,102291.91
2022-11-26T14:22:29.569Z,102286.44
2022-11-26T14:25:01.899Z,102285.34
2022-11-26T14:27:33.306Z,102294.47
2022-11-26T14:30:00.143Z,102293.75
2022-11-26T14:32:32.282Z,102295.56
2022-11-26T14:34:59.200Z,102297.59
2022-11-26T14:37:30.619Z,102300.84
2022-11-26T14:40:01.584Z,102298.41
2022-11-26T14:42:29.459Z,102293.31
2022-11-26T14:45:06.945Z,102302.34
2022-11-26T14:47:33.922Z,102298.66
2022-11-26T14:50:04.715Z,102299.13
2022-11-26T14:52:37.121Z,102292.19
2022-11-26T14:55:08.545Z,102292.19
2022-11-26T14:57:38.174Z,102291.06
2022-11-26T15:00:27.679Z,102285.16
2022-11-26T15:02:54.760Z,102291.16
2022-11-26T15:05:24.805Z,102286.69
2022-11-26T15:08:24.285Z,102294.22
2022-11-26T15:11:11.867Z,102301.44
2022-11-26T15:13:43.031Z,102292.91
2022-11-26T15:16:42.816Z,102296.44
2022-11-26T15:19:15.316Z,102293.28
2022-11-26T15:21:42.080Z,102300.25
2022-11-26T15:24:09.144Z,102301.44
2022-11-26T15:26:36.866Z,102294.94
2022-11-26T15:29:27.951Z,102309.47
2022-11-26T15:31:54.869Z,102301.88
2022-11-26T15:34:21.912Z,102294.84
2022-11-26T15:36:48.667Z,102296.03
2022-11-26T15:39:30.798Z,102292.97
2022-11-26T15:42:02.049Z,102297.34
2022-11-26T15:44:31.847Z,102296.41
2022-11-26T15:47:00.659Z,102306.97
2022-11-26T15:49:40.473Z,102305.28
2022-11-26T15:52:13.309Z,102310.03
2022-11-26T15:55:11.412Z,102310.38
2022-11-26T15:57:39.302Z,102303.03
2022-11-26T16:00:36.999Z,102302.34
2022-11-26T16:03:05.133Z,102311.59
2022-11-26T16:05:38.893Z,102305.75
2022-11-26T16:08:30.317Z,102309.94
2022-11-26T16:11:05.069Z,102307.63
2022-11-26T16:13:33.068Z,102305.13
2022-11-26T16:16:12.829Z,102301.56
2022-11-26T16:18:54.193Z,102300.94
2022-11-26T16:21:25.470Z,102299.63
2022-11-26T16:24:00.703Z,102312.28
2022-11-26T16:26:28.072Z,102310.28
2022-11-26T16:28:55.061Z,102326.22
2022-11-26T16:31:22.718Z,102322.22
2022-11-26T16:33:49.576Z,102326.09
2022-11-26T16:36:22.165Z,102326.25
2022-11-26T16:38:51.579Z,102331.97
2022-11-26T16:41:21.207Z,102341.03
2022-11-26T16:43:49.277Z,102337.03
2022-11-26T16:46:17.740Z,102332.19
2022-11-26T16:48:45.911Z,102334.09
2022-11-26T16:51:13.296Z,102332.41
2022-11-26T16:53:40.420Z,102325.72
2022-11-26T16:58:49.801Z,102327.44
2022-11-26T17:01:16.843Z,102334.50
2022-11-26T17:03:44.133Z,102335.19
2022-11-26T17:06:25.632Z,102337.06
2022-11-26T17:08:55.625Z,102348.44
2022-11-26T17:11:23.344Z,102345.28
2022-11-26T17:13:50.156Z,102350.97
2022-11-26T17:16:20.182Z,102353.00
2022-11-26T17:18:47.875Z,102356.50
2022-11-26T17:21:15.018Z,102348.63
2022-11-26T17:23:41.724Z,102353.69
2022-11-26T17:26:19.674Z,102347.66
2022-11-26T17:28:47.099Z,102344.78
2022-11-26T17:31:14.307Z,102348.16
2022-11-26T17:33:41.021Z,102345.50
2022-11-26T17:36:22.273Z,102346.13
2022-11-26T17:38:49.979Z,102349.34
2022-11-26T17:41:17.512Z,102357.38
2022-11-26T17:43:44.272Z,102353.19
2022-11-26T17:46:21.750Z,102357.91
2022-11-26T17:48:49.993Z,102350.19
2022-11-26T17:51:18.188Z,102349.69
2022-11-26T17:53:45.041Z,102352.56
2022-11-26T17:56:21.888Z,102351.34
2022-11-26T17:58:48.821Z,102350.19
2022-11-26T18:01:16.766Z,102346.16
2022-11-26T18:03:44.270Z,102349.69
2022-11-26T18:06:19.347Z,102354.03
2022-11-26T18:08:46.135Z,102360.25
2022-11-26T18:11:15.117Z,102366.44
2022-11-26T18:13:41.793Z,102367.59
2022-11-26T18:16:08.635Z,102356.22
2022-11-26T18:18:35.232Z,102357.22
2022-11-26T18:21:02.075Z,102356.41
2022-11-26T18:23:29.968Z,102361.94
2022-11-26T18:25:56.622Z,102361.41
2022-11-26T18:28:23.271Z,102363.75
2022-11-26T18:30:50.107Z,102364.09
2022-11-26T18:33:16.885Z,102376.31
2022-11-26T18:35:43.742Z,102372.13
2022-11-26T18:38:11.581Z,102366.91
2022-11-26T18:40:38.643Z,102368.06
2022-11-26T18:43:05.488Z,102374.75
2022-11-26T18:45:32.676Z,102382.63
2022-11-26T18:48:00.417Z,102393.16
2022-11-26T18:50:27.349Z,102402.84
2022-11-26T18:52:56.197Z,102406.16
2022-11-26T18:55:22.787Z,102407.50
2022-11-26T18:57:49.413Z,102411.22
2022-11-26T19:00:16.342Z,102408.28
2022-11-26T19:02:43.102Z,102404.09
2022-11-26T19:05:09.919Z,102412.22
2022-11-26T19:07:37.240Z,102408.03
2022-11-26T19:10:04.591Z,102409.41
2022-11-26T19:12:31.565Z,102414.03
2022-11-26T19:14:58.310Z,102420.03
2022-11-26T19:17:24.888Z,102424.13
2022-11-26T19:19:51.530Z,102425.47
2022-11-26T19:22:18.178Z,102430.78
2022-11-26T19:24:44.794Z,102431.78
2022-11-26T19:27:13.046Z,102441.66
2022-11-26T19:29:39.968Z,102441.31
2022-11-26T19:32:06.851Z,102453.53
2022-11-26T19:34:33.459Z,102442.31
2022-11-26T19:37:00.102Z,102433.03
2022-11-26T19:39:26.733Z,102432.03
2022-11-26T19:41:53.457Z,102428.00
2022-11-26T19:44:20.109Z,102430.50
2022-11-26T19:46:48.131Z,102430.09
2022-11-26T19:49:15.308Z,102421.28
2022-11-26T19:51:42.391Z,102425.88
2022-11-26T19:54:09.185Z,102419.34
2022-11-26T19:56:36.828Z,102423.91
2022-11-26T19:59:03.741Z,102418.56
2022-11-26T20:01:32.648Z,102405.56
2022-11-26T20:04:01.960Z,102412.69
2022-11-26T20:06:31.074Z,102415.63
2022-11-26T20:09:01.031Z,102426.31
2022-11-26T20:11:29.059Z,102423.59
2022-11-26T20:13:56.840Z,102423.47
2022-11-26T20:16:26.377Z,102412.56
2022-11-26T20:18:53.456Z,102408.59
2022-11-26T20:21:23.554Z,102410.75
2022-11-26T20:23:51.819Z,102410.91
2022-11-26T20:26:25.376Z,102425.81
2022-11-26T20:28:53.154Z,102427.00
2022-11-26T20:31:23.969Z,102417.03
2022-11-26T20:33:53.335Z,102415.91
2022-11-26T20:36:23.001Z,102420.31
2022-11-26T20:38:54.949Z,102430.97
2022-11-26T20:41:23.272Z,102430.63
2022-11-26T20:43:54.931Z,102446.13
2022-11-26T20:46:26.240Z,102448.50
2022-11-26T20:48:53.098Z,102448.50
2022-11-26T20:51:21.847Z,102447.16
2022-11-26T20:53:50.601Z,102441.16
2022-11-26T20:56:19.647Z,102451.22
2022-11-26T20:58:46.559Z,102454.59
2022-11-26T21:01:27.892Z,102455.41
2022-11-26T21:03:55.471Z,102457.84
2022-11-26T21:06:29.367Z,102453.72
2022-11-26T21:09:01.398Z,102449.59
2022-11-26T21:11:28.831Z,102452.28
2022-11-26T21:13:55.471Z,102460.53
2022-11-26T21:16:23.400Z,102466.72
2022-11-26T21:18:53.379Z,102463.19
2022-11-26T21:21:20.249Z,102466.34
2022-11-26T21:23:46.987Z,102461.47
2022-11-26T21:26:19.804Z,102468.66
2022-11-26T21:28:51.664Z,102458.84
2022-11-26T21:31:19.811Z,102455.69
2022-11-26T21:33:47.862Z,102449.59
2022-11-26T21:36:16.467Z,102450.88
2022-11-26T21:38:47.058Z,102455.06
2022-11-26T21:41:13.986Z,102449.53
2022-11-26T21:43:41.186Z,102449.06
2022-11-26T21:46:10.705Z,102441.81
2022-11-26T21:48:37.556Z,102435.09
2022-11-26T21:51:08.856Z,102437.69
2022-11-26T21:53:35.795Z,102430.38
2022-11-26T21:56:07.493Z,102429.31
2022-11-26T21:58:35.847Z,102432.41
2022-11-26T22:01:10.042Z,102440.25
2022-11-26T22:03:37.691Z,102440.97
2022-11-26T22:06:04.497Z,102442.72
2022-11-26T22:08:31.916Z,102444.22
2022-11-26T22:10:58.571Z,102439.59
2022-11-26T22:13:25.199Z,102430.50
2022-11-26T22:15:51.986Z,102430.25
2022-11-26T22:18:18.623Z,102430.16
2022-11-26T22:20:52.341Z,102442.88
2022-11-26T22:23:21.388Z,102440.56
2022-11-26T22:25:48.414Z,102438.88
2022-11-26T22:28:15.090Z,102452.38
2022-11-26T22:30:41.659Z,102458.34
2022-11-26T22:33:09.546Z,102465.66
2022-11-26T22:35:36.536Z,102456.84
2022-11-26T22:38:03.271Z,102462.31
2022-11-26T22:40:29.954Z,102462.31
2022-11-26T22:42:58.696Z,102458.25
2022-11-26T22:45:26.134Z,102462.31
2022-11-26T22:47:53.131Z,102454.03
2022-11-26T22:50:20.598Z,102458.66
2022-11-26T22:52:47.375Z,102466.69
2022-11-26T22:55:14.154Z,102475.25
2022-11-26T22:57:40.976Z,102469.78
2022-11-26T23:00:14.386Z,102467.13
2022-11-26T23:02:41.771Z,102460.69
2022-11-26T23:05:08.764Z,102465.16
2022-11-26T23:07:35.375Z,102459.44
2022-11-26T23:10:02.097Z,102456.09
2022-11-26T23:12:28.771Z,102466.16
2022-11-26T23:14:55.364Z,102477.97
2022-11-26T23:17:22.054Z,102472.34
2022-11-26T23:19:50.837Z,102474.88
2022-11-26T23:22:17.470Z,102472.50
2022-11-26T23:24:44.147Z,102471.50
2022-11-26T23:27:10.792Z,102482.44
2022-11-26T23:29:37.534Z,102476.28
2022-11-26T23:32:04.320Z,102461.97
2022-11-26T23:34:30.978Z,102458.47
2022-11-26T23:36:57.685Z,102451.59
2022-11-26T23:39:24.441Z,102444.16
2022-11-26T23:41:51.089Z,102441.22
2022-11-26T23:44:17.764Z,102424.53
2022-11-26T23:46:44.504Z,102421.63
2022-11-26T23:49:11.145Z,102406.47
2022-11-26T23:51:37.886Z,102400.84
2022-11-26T23:54:04.600Z,102404.25
2022-11-26T23:56:33.660Z,102418.09
2022-11-26T23:59:03.024Z,102427.34
